sensor_id;sensor_type;location;lat;lon;timestamp;pressure;altitude;pressure_sealevel;temperature
67599;BMP280;62026;39.230;9.122;2023-10-19T00:00:57;100321.47;;;22.95
67599;BMP280;62026;39.230;9.122;2023-10-19T00:03:24;100322.06;;;22.92
67599;BMP280;62026;39.230;9.122;2023-10-19T00:05:50;100326.53;;;22.97
67599;BMP280;62026;39.230;9.122;2023-10-19T00:08:16;100323.53;;;22.98
67599;BMP280;62026;39.230;9.122;2023-10-19T00:10:52;100318.13;;;22.98
67599;BMP280;62026;39.230;9.122;2023-10-19T00:13:41;100331.78;;;23.02
67599;BMP280;62026;39.230;9.122;2023-10-19T00:16:09;100329.69;;;22.99
67599;BMP280;62026;39.230;9.122;2023-10-19T00:18:46;100330.78;;;22.98
67599;BMP280;62026;39.230;9.122;2023-10-19T00:21:15;100325.13;;;22.99
67599;BMP280;62026;39.230;9.122;2023-10-19T00:23:58;100333.31;;;22.94
67599;BMP280;62026;39.230;9.122;2023-10-19T00:26:27;100325.75;;;22.96
67599;BMP280;62026;39.230;9.122;2023-10-19T00:28:57;100318.75;;;22.95
67599;BMP280;62026;39.230;9.122;2023-10-19T00:31:27;100315.56;;;22.93
67599;BMP280;62026;39.230;9.122;2023-10-19T00:33:54;100318.88;;;22.90
67599;BMP280;62026;39.230;9.122;2023-10-19T00:36:22;100321.72;;;22.94
67599;BMP280;62026;39.230;9.122;2023-10-19T00:38:49;100318.75;;;22.95
67599;BMP280;62026;39.230;9.122;2023-10-19T00:41:24;100316.66;;;22.92
67599;BMP280;62026;39.230;9.122;2023-10-19T00:43:56;100316.97;;;22.91
67599;BMP280;62026;39.230;9.122;2023-10-19T00:46:38;100320.56;;;22.86
67599;BMP280;62026;39.230;9.122;2023-10-19T00:49:11;100319.00;;;22.85
67599;BMP280;62026;39.230;9.122;2023-10-19T00:51:47;100321.88;;;22.89
67599;BMP280;62026;39.230;9.122;2023-10-19T00:54:34;100314.91;;;22.88
67599;BMP280;62026;39.230;9.122;2023-10-19T00:57:04;100312.00;;;22.84
67599;BMP280;62026;39.230;9.122;2023-10-19T00:59:42;100309.63;;;22.83
67599;BMP280;62026;39.230;9.122;2023-10-19T01:02:16;100307.25;;;22.81
67599;BMP280;62026;39.230;9.122;2023-10-19T01:04:51;100305.03;;;22.83
67599;BMP280;62026;39.230;9.122;2023-10-19T01:07:31;100310.03;;;22.90
67599;BMP280;62026;39.230;9.122;2023-10-19T01:10:04;100306.03;;;22.87
67599;BMP280;62026;39.230;9.122;2023-10-19T01:12:32;100310.13;;;22.85
67599;BMP280;62026;39.230;9.122;2023-10-19T01:15:07;100308.22;;;22.85
67599;BMP280;62026;39.230;9.122;2023-10-19T01:17:48;100300.78;;;22.82
67599;BMP280;62026;39.230;9.122;2023-10-19T01:20:29;100291.09;;;22.81
67599;BMP280;62026;39.230;9.122;2023-10-19T01:23:05;100290.78;;;22.83
67599;BMP280;62026;39.230;9.122;2023-10-19T01:28:35;100270.69;;;22.80
67599;BMP280;62026;39.230;9.122;2023-10-19T01:33:43;100278.44;;;22.82
67599;BMP280;62026;39.230;9.122;2023-10-19T01:36:13;100286.69;;;22.85
67599;BMP280;62026;39.230;9.122;2023-10-19T01:38:48;100279.72;;;22.84
67599;BMP280;62026;39.230;9.122;2023-10-19T01:41:15;100277.16;;;22.79
67599;BMP280;62026;39.230;9.122;2023-10-19T01:43:47;100280.34;;;22.81
67599;BMP280;62026;39.230;9.122;2023-10-19T01:46:17;100271.78;;;22.79
67599;BMP280;62026;39.230;9.122;2023-10-19T01:48:53;100277.16;;;22.79
67599;BMP280;62026;39.230;9.122;2023-10-19T01:51:26;100269.38;;;22.77
67599;BMP280;62026;39.230;9.122;2023-10-19T01:53:56;100273.16;;;22.76
67599;BMP280;62026;39.230;9.122;2023-10-19T01:56:23;100272.38;;;22.76
67599;BMP280;62026;39.230;9.122;2023-10-19T01:58:50;100276.97;;;22.75
67599;BMP280;62026;39.230;9.122;2023-10-19T02:01:25;100271.41;;;22.72
67599;BMP280;62026;39.230;9.122;2023-10-19T02:03:53;100274.59;;;22.74
67599;BMP280;62026;39.230;9.122;2023-10-19T02:06:21;100262.81;;;22.70
67599;BMP280;62026;39.230;9.122;2023-10-19T02:11:27;100262.31;;;22.68
67599;BMP280;62026;39.230;9.122;2023-10-19T02:13:56;100261.88;;;22.66
67599;BMP280;62026;39.230;9.122;2023-10-19T02:16:26;100259.47;;;22.64
67599;BMP280;62026;39.230;9.122;2023-10-19T02:18:53;100251.91;;;22.66
67599;BMP280;62026;39.230;9.122;2023-10-19T02:21:19;100250.31;;;22.65
67599;BMP280;62026;39.230;9.122;2023-10-19T02:23:49;100256.47;;;22.66
67599;BMP280;62026;39.230;9.122;2023-10-19T02:26:20;100254.09;;;22.64
67599;BMP280;62026;39.230;9.122;2023-10-19T02:28:49;100249.50;;;22.65
67599;BMP280;62026;39.230;9.122;2023-10-19T02:31:19;100241.72;;;22.63
67599;BMP280;62026;39.230;9.122;2023-10-19T02:33:54;100247.91;;;22.64
67599;BMP280;62026;39.230;9.122;2023-10-19T02:36:27;100238.84;;;22.60
67599;BMP280;62026;39.230;9.122;2023-10-19T02:39:09;100249.50;;;22.65
67599;BMP280;62026;39.230;9.122;2023-10-19T02:41:41;100239.03;;;22.63
67599;BMP280;62026;39.230;9.122;2023-10-19T02:44:10;100240.13;;;22.62
67599;BMP280;62026;39.230;9.122;2023-10-19T02:46:54;100234.59;;;22.59
67599;BMP280;62026;39.230;9.122;2023-10-19T02:49:25;100232.69;;;22.59
67599;BMP280;62026;39.230;9.122;2023-10-19T02:51:53;100234.75;;;22.62
67599;BMP280;62026;39.230;9.122;2023-10-19T02:54:22;100220.50;;;22.62
67599;BMP280;62026;39.230;9.122;2023-10-19T02:56:52;100221.59;;;22.61
67599;BMP280;62026;39.230;9.122;2023-10-19T02:59:21;100231.56;;;22.60
67599;BMP280;62026;39.230;9.122;2023-10-19T03:01:56;100224.78;;;22.63
67599;BMP280;62026;39.230;9.122;2023-10-19T03:04:28;100220.00;;;22.60
67599;BMP280;62026;39.230;9.122;2023-10-19T03:06:54;100227.19;;;22.64
67599;BMP280;62026;39.230;9.122;2023-10-19T03:09:23;100215.03;;;22.67
67599;BMP280;62026;39.230;9.122;2023-10-19T03:11:56;100215.41;;;22.60
67599;BMP280;62026;39.230;9.122;2023-10-19T03:14:26;100217.81;;;22.62
67599;BMP280;62026;39.230;9.122;2023-10-19T03:16:53;100217.50;;;22.63
67599;BMP280;62026;39.230;9.122;2023-10-19T03:19:23;100206.56;;;22.60
67599;BMP280;62026;39.230;9.122;2023-10-19T03:21:53;100217.66;;;22.58
67599;BMP280;62026;39.230;9.122;2023-10-19T03:24:26;100214.63;;;22.60
67599;BMP280;62026;39.230;9.122;2023-10-19T03:27:08;100209.88;;;22.57
67599;BMP280;62026;39.230;9.122;2023-10-19T03:29:48;100212.56;;;22.57
67599;BMP280;62026;39.230;9.122;2023-10-19T03:32:19;100208.16;;;22.61
67599;BMP280;62026;39.230;9.122;2023-10-19T03:34:53;100198.47;;;22.60
67599;BMP280;62026;39.230;9.122;2023-10-19T03:37:23;100204.34;;;22.62
67599;BMP280;62026;39.230;9.122;2023-10-19T03:39:52;100206.25;;;22.61
67599;BMP280;62026;39.230;9.122;2023-10-19T03:42:22;100198.47;;;22.60
67599;BMP280;62026;39.230;9.122;2023-10-19T03:44:51;100201.19;;;22.60
67599;BMP280;62026;39.230;9.122;2023-10-19T03:47:20;100206.44;;;22.65
67599;BMP280;62026;39.230;9.122;2023-10-19T03:49:49;100201.97;;;22.60
67599;BMP280;62026;39.230;9.122;2023-10-19T03:52:16;100202.31;;;22.59
67599;BMP280;62026;39.230;9.122;2023-10-19T03:54:42;100207.69;;;22.59
67599;BMP280;62026;39.230;9.122;2023-10-19T03:57:15;100207.06;;;22.62
67599;BMP280;62026;39.230;9.122;2023-10-19T03:59:46;100213.84;;;22.59
67599;BMP280;62026;39.230;9.122;2023-10-19T04:02:16;100199.09;;;22.57
67599;BMP280;62026;39.230;9.122;2023-10-19T04:04:43;100204.50;;;22.57
67599;BMP280;62026;39.230;9.122;2023-10-19T04:07:10;100193.72;;;22.57
67599;BMP280;62026;39.230;9.122;2023-10-19T04:09:42;100195.31;;;22.58
67599;BMP280;62026;39.230;9.122;2023-10-19T04:12:28;100196.91;;;22.59
67599;BMP280;62026;39.230;9.122;2023-10-19T04:14:58;100202.31;;;22.59
67599;BMP280;62026;39.230;9.122;2023-10-19T04:17:35;100196.13;;;22.58
67599;BMP280;62026;39.230;9.122;2023-10-19T04:20:02;100187.84;;;22.55
67599;BMP280;62026;39.230;9.122;2023-10-19T04:22:52;100189.94;;;22.58
67599;BMP280;62026;39.230;9.122;2023-10-19T04:25:19;100194.31;;;22.54
67599;BMP280;62026;39.230;9.122;2023-10-19T04:27:47;100190.03;;;22.53
67599;BMP280;62026;39.230;9.122;2023-10-19T04:30:15;100191.16;;;22.52
67599;BMP280;62026;39.230;9.122;2023-10-19T04:32:49;100184.19;;;22.51
67599;BMP280;62026;39.230;9.122;2023-10-19T04:35:16;100189.59;;;22.51
67599;BMP280;62026;39.230;9.122;2023-10-19T04:37:57;100190.38;;;22.51
67599;BMP280;62026;39.230;9.122;2023-10-19T04:40:23;100184.19;;;22.51
67599;BMP280;62026;39.230;9.122;2023-10-19T04:42:54;100179.63;;;22.51
67599;BMP280;62026;39.230;9.122;2023-10-19T04:45:24;100171.22;;;22.53
67599;BMP280;62026;39.230;9.122;2023-10-19T04:47:53;100158.88;;;22.52
67599;BMP280;62026;39.230;9.122;2023-10-19T04:50:21;100165.38;;;22.51
67599;BMP280;62026;39.230;9.122;2023-10-19T04:52:47;100153.00;;;22.50
67599;BMP280;62026;39.230;9.122;2023-10-19T04:55:13;100157.09;;;22.47
67599;BMP280;62026;39.230;9.122;2023-10-19T04:57:39;100175.63;;;22.49
67599;BMP280;62026;39.230;9.122;2023-10-19T05:00:06;100161.09;;;22.50
67599;BMP280;62026;39.230;9.122;2023-10-19T05:02:33;100165.16;;;22.47
67599;BMP280;62026;39.230;9.122;2023-10-19T05:04:59;100157.09;;;22.47
67599;BMP280;62026;39.230;9.122;2023-10-19T05:07:25;100152.50;;;22.48
67599;BMP280;62026;39.230;9.122;2023-10-19T05:09:52;100156.31;;;22.47
67599;BMP280;62026;39.230;9.122;2023-10-19T05:12:19;100157.41;;;22.46
67599;BMP280;62026;39.230;9.122;2023-10-19T05:14:45;100154.72;;;22.46
67599;BMP280;62026;39.230;9.122;2023-10-19T05:17:11;100147.44;;;22.46
67599;BMP280;62026;39.230;9.122;2023-10-19T05:19:39;100143.16;;;22.45
67599;BMP280;62026;39.230;9.122;2023-10-19T05:22:09;100143.94;;;22.46
67599;BMP280;62026;39.230;9.122;2023-10-19T05:24:36;100136.56;;;22.51
67599;BMP280;62026;39.230;9.122;2023-10-19T05:27:02;100134.19;;;22.50
67599;BMP280;62026;39.230;9.122;2023-10-19T05:29:31;100141.16;;;22.51
67599;BMP280;62026;39.230;9.122;2023-10-19T05:31:58;100150.13;;;22.46
67599;BMP280;62026;39.230;9.122;2023-10-19T05:34:25;100139.38;;;22.46
67599;BMP280;62026;39.230;9.122;2023-10-19T05:36:55;100149.34;;;22.46
67599;BMP280;62026;39.230;9.122;2023-10-19T05:39:24;100142.34;;;22.45
67599;BMP280;62026;39.230;9.122;2023-10-19T05:41:56;100151.56;;;22.44
67599;BMP280;62026;39.230;9.122;2023-10-19T05:44:30;100146.19;;;22.44
67599;BMP280;62026;39.230;9.122;2023-10-19T05:46:56;100146.66;;;22.46
67599;BMP280;62026;39.230;9.122;2023-10-19T05:49:24;100143.84;;;22.51
67599;BMP280;62026;39.230;9.122;2023-10-19T05:51:51;100146.69;;;22.54
67599;BMP280;62026;39.230;9.122;2023-10-19T05:54:17;100148.78;;;22.57
67599;BMP280;62026;39.230;9.122;2023-10-19T05:56:43;100149.28;;;22.59
67599;BMP280;62026;39.230;9.122;2023-10-19T05:59:09;100145.66;;;22.64
67599;BMP280;62026;39.230;9.122;2023-10-19T06:01:36;100146.63;;;22.68
67599;BMP280;62026;39.230;9.122;2023-10-19T06:04:07;100137.94;;;22.71
67599;BMP280;62026;39.230;9.122;2023-10-19T06:06:33;100149.38;;;22.76
67599;BMP280;62026;39.230;9.122;2023-10-19T06:08:59;100151.94;;;22.82
67599;BMP280;62026;39.230;9.122;2023-10-19T06:11:29;100152.09;;;22.85
67599;BMP280;62026;39.230;9.122;2023-10-19T06:13:58;100149.75;;;22.92
67599;BMP280;62026;39.230;9.122;2023-10-19T06:16:25;100155.63;;;22.94
67599;BMP280;62026;39.230;9.122;2023-10-19T06:18:51;100148.75;;;23.10
67599;BMP280;62026;39.230;9.122;2023-10-19T06:21:19;100151.63;;;23.23
67599;BMP280;62026;39.230;9.122;2023-10-19T06:23:46;100151.63;;;23.31
67599;BMP280;62026;39.230;9.122;2023-10-19T06:26:12;100154.88;;;23.42
67599;BMP280;62026;39.230;9.122;2023-10-19T06:28:39;100165.81;;;23.54
67599;BMP280;62026;39.230;9.122;2023-10-19T06:31:06;100174.09;;;23.66
67599;BMP280;62026;39.230;9.122;2023-10-19T06:33:33;100189.50;;;23.74
67599;BMP280;62026;39.230;9.122;2023-10-19T06:35:59;100188.09;;;23.94
67599;BMP280;62026;39.230;9.122;2023-10-19T06:38:29;100199.84;;;24.07
67599;BMP280;62026;39.230;9.122;2023-10-19T06:40:57;100196.66;;;24.22
67599;BMP280;62026;39.230;9.122;2023-10-19T06:43:24;100202.22;;;24.34
67599;BMP280;62026;39.230;9.122;2023-10-19T06:45:55;100201.19;;;24.64
67599;BMP280;62026;39.230;9.122;2023-10-19T06:48:21;100215.78;;;24.81
67599;BMP280;62026;39.230;9.122;2023-10-19T06:50:47;100218.75;;;24.96
67599;BMP280;62026;39.230;9.122;2023-10-19T06:53:13;100225.75;;;24.89
67599;BMP280;62026;39.230;9.122;2023-10-19T06:55:39;100233.69;;;24.94
67599;BMP280;62026;39.230;9.122;2023-10-19T06:58:06;100215.44;;;24.91
67599;BMP280;62026;39.230;9.122;2023-10-19T07:00:34;100206.94;;;24.54
67599;BMP280;62026;39.230;9.122;2023-10-19T07:03:00;100217.94;;;24.32
67599;BMP280;62026;39.230;9.122;2023-10-19T07:05:27;100212.34;;;24.37
67599;BMP280;62026;39.230;9.122;2023-10-19T07:07:57;100214.34;;;24.83
67599;BMP280;62026;39.230;9.122;2023-10-19T07:10:25;100219.03;;;25.41
67599;BMP280;62026;39.230;9.122;2023-10-19T07:12:55;100213.91;;;25.48
67599;BMP280;62026;39.230;9.122;2023-10-19T07:15:22;100222.63;;;25.75
67599;BMP280;62026;39.230;9.122;2023-10-19T07:17:50;100231.63;;;26.08
67599;BMP280;62026;39.230;9.122;2023-10-19T07:20:26;100229.75;;;26.21
67599;BMP280;62026;39.230;9.122;2023-10-19T07:22:59;100212.44;;;26.34
67599;BMP280;62026;39.230;9.122;2023-10-19T07:25:46;100212.41;;;26.55
67599;BMP280;62026;39.230;9.122;2023-10-19T07:28:15;100221.28;;;26.88
67599;BMP280;62026;39.230;9.122;2023-10-19T07:30:43;100214.50;;;26.94
67599;BMP280;62026;39.230;9.122;2023-10-19T07:33:14;100215.88;;;27.00
67599;BMP280;62026;39.230;9.122;2023-10-19T07:35:44;100221.06;;;27.30
67599;BMP280;62026;39.230;9.122;2023-10-19T07:38:16;100218.44;;;27.45
67599;BMP280;62026;39.230;9.122;2023-10-19T07:40:43;100217.84;;;27.52
67599;BMP280;62026;39.230;9.122;2023-10-19T07:43:09;100216.03;;;27.56
67599;BMP280;62026;39.230;9.122;2023-10-19T07:45:36;100209.41;;;27.81
67599;BMP280;62026;39.230;9.122;2023-10-19T07:48:03;100198.75;;;27.88
67599;BMP280;62026;39.230;9.122;2023-10-19T07:50:38;100206.53;;;27.62
67599;BMP280;62026;39.230;9.122;2023-10-19T07:53:04;100198.19;;;27.67
67599;BMP280;62026;39.230;9.122;2023-10-19T07:55:31;100202.25;;;27.49
67599;BMP280;62026;39.230;9.122;2023-10-19T07:58:00;100197.97;;;27.48
67599;BMP280;62026;39.230;9.122;2023-10-19T08:00:27;100208.13;;;27.63
67599;BMP280;62026;39.230;9.122;2023-10-19T08:02:55;100212.28;;;28.00
67599;BMP280;62026;39.230;9.122;2023-10-19T08:05:22;100200.69;;;28.16
67599;BMP280;62026;39.230;9.122;2023-10-19T08:07:48;100186.22;;;28.27
67599;BMP280;62026;39.230;9.122;2023-10-19T08:10:16;100199.69;;;28.51
67599;BMP280;62026;39.230;9.122;2023-10-19T08:12:44;100196.19;;;28.82
67599;BMP280;62026;39.230;9.122;2023-10-19T08:15:16;100206.16;;;28.78
67599;BMP280;62026;39.230;9.122;2023-10-19T08:17:47;100198.19;;;28.85
67599;BMP280;62026;39.230;9.122;2023-10-19T08:20:15;100204.72;;;29.16
67599;BMP280;62026;39.230;9.122;2023-10-19T08:22:52;100206.88;;;29.26
67599;BMP280;62026;39.230;9.122;2023-10-19T08:25:18;100204.19;;;29.45
67599;BMP280;62026;39.230;9.122;2023-10-19T08:27:45;100198.03;;;29.48
67599;BMP280;62026;39.230;9.122;2023-10-19T08:30:13;100199.75;;;29.75
67599;BMP280;62026;39.230;9.122;2023-10-19T08:32:40;100199.97;;;29.67
67599;BMP280;62026;39.230;9.122;2023-10-19T08:35:09;100192.44;;;29.79
67599;BMP280;62026;39.230;9.122;2023-10-19T08:37:41;100197.75;;;29.72
67599;BMP280;62026;39.230;9.122;2023-10-19T08:40:11;100192.38;;;29.76
67599;BMP280;62026;39.230;9.122;2023-10-19T08:42:45;100205.25;;;29.98
67599;BMP280;62026;39.230;9.122;2023-10-19T08:45:13;100189.97;;;30.13
67599;BMP280;62026;39.230;9.122;2023-10-19T08:47:57;100202.06;;;30.15
67599;BMP280;62026;39.230;9.122;2023-10-19T08:50:29;100203.22;;;30.14
67599;BMP280;62026;39.230;9.122;2023-10-19T08:52:58;100199.44;;;30.00
67599;BMP280;62026;39.230;9.122;2023-10-19T08:55:25;100202.97;;;30.23
67599;BMP280;62026;39.230;9.122;2023-10-19T08:57:52;100198.31;;;30.23
67599;BMP280;62026;39.230;9.122;2023-10-19T09:00:20;100196.53;;;30.12
67599;BMP280;62026;39.230;9.122;2023-10-19T09:02:52;100206.56;;;30.27
67599;BMP280;62026;39.230;9.122;2023-10-19T09:05:19;100200.59;;;29.99
67599;BMP280;62026;39.230;9.122;2023-10-19T09:07:51;100211.91;;;30.20
67599;BMP280;62026;39.230;9.122;2023-10-19T09:10:25;100203.88;;;30.08
67599;BMP280;62026;39.230;9.122;2023-10-19T09:13:04;100201.69;;;30.17
67599;BMP280;62026;39.230;9.122;2023-10-19T09:15:31;100200.66;;;30.25
67599;BMP280;62026;39.230;9.122;2023-10-19T09:20:45;100198.16;;;30.85
67599;BMP280;62026;39.230;9.122;2023-10-19T09:23:27;100202.00;;;30.84
67599;BMP280;62026;39.230;9.122;2023-10-19T09:25:58;100204.16;;;30.97
67599;BMP280;62026;39.230;9.122;2023-10-19T09:28:28;100195.16;;;30.44
67599;BMP280;62026;39.230;9.122;2023-10-19T09:30:55;100194.00;;;30.68
67599;BMP280;62026;39.230;9.122;2023-10-19T09:33:22;100195.03;;;30.86
67599;BMP280;62026;39.230;9.122;2023-10-19T09:35:50;100192.19;;;31.05
67599;BMP280;62026;39.230;9.122;2023-10-19T09:38:22;100196.66;;;31.17
67599;BMP280;62026;39.230;9.122;2023-10-19T09:40:53;100205.03;;;31.05
67599;BMP280;62026;39.230;9.122;2023-10-19T09:43:45;100203.44;;;30.74
67599;BMP280;62026;39.230;9.122;2023-10-19T09:46:12;100187.66;;;30.38
67599;BMP280;62026;39.230;9.122;2023-10-19T09:48:48;100192.81;;;30.01
67599;BMP280;62026;39.230;9.122;2023-10-19T09:51:17;100200.88;;;29.74
67599;BMP280;62026;39.230;9.122;2023-10-19T09:53:53;100207.34;;;30.27
67599;BMP280;62026;39.230;9.122;2023-10-19T09:56:32;100204.47;;;30.92
67599;BMP280;62026;39.230;9.122;2023-10-19T09:59:13;100203.16;;;31.09
67599;BMP280;62026;39.230;9.122;2023-10-19T10:02:11;100204.84;;;31.17
67599;BMP280;62026;39.230;9.122;2023-10-19T10:04:41;100207.03;;;31.34
67599;BMP280;62026;39.230;9.122;2023-10-19T10:07:09;100193.25;;;31.27
67599;BMP280;62026;39.230;9.122;2023-10-19T10:09:40;100197.69;;;31.39
67599;BMP280;62026;39.230;9.122;2023-10-19T10:12:36;100199.44;;;31.21
67599;BMP280;62026;39.230;9.122;2023-10-19T10:15:05;100200.56;;;31.49
67599;BMP280;62026;39.230;9.122;2023-10-19T10:17:35;100191.22;;;31.50
67599;BMP280;62026;39.230;9.122;2023-10-19T10:22:41;100168.88;;;31.41
67599;BMP280;62026;39.230;9.122;2023-10-19T10:25:08;100166.16;;;31.41
67599;BMP280;62026;39.230;9.122;2023-10-19T10:27:49;100177.28;;;31.59
67599;BMP280;62026;39.230;9.122;2023-10-19T10:30:16;100164.88;;;31.69
67599;BMP280;62026;39.230;9.122;2023-10-19T10:32:47;100159.25;;;31.54
67599;BMP280;62026;39.230;9.122;2023-10-19T10:38:07;100167.75;;;31.42
67599;BMP280;62026;39.230;9.122;2023-10-19T10:40:49;100147.44;;;31.43
67599;BMP280;62026;39.230;9.122;2023-10-19T10:43:18;100142.50;;;31.19
67599;BMP280;62026;39.230;9.122;2023-10-19T10:45:44;100140.25;;;30.68
67599;BMP280;62026;39.230;9.122;2023-10-19T10:48:18;100138.50;;;31.13
67599;BMP280;62026;39.230;9.122;2023-10-19T10:50:48;100134.16;;;30.79
67599;BMP280;62026;39.230;9.122;2023-10-19T10:53:15;100131.19;;;30.61
67599;BMP280;62026;39.230;9.122;2023-10-19T10:55:41;100126.84;;;30.56
67599;BMP280;62026;39.230;9.122;2023-10-19T10:58:07;100115.63;;;30.88
67599;BMP280;62026;39.230;9.122;2023-10-19T11:00:42;100119.16;;;30.92
67599;BMP280;62026;39.230;9.122;2023-10-19T11:03:07;100114.03;;;30.87
67599;BMP280;62026;39.230;9.122;2023-10-19T11:05:37;100109.03;;;30.62
67599;BMP280;62026;39.230;9.122;2023-10-19T11:08:09;100100.19;;;30.43
67599;BMP280;62026;39.230;9.122;2023-10-19T11:10:37;100090.34;;;30.38
67599;BMP280;62026;39.230;9.122;2023-10-19T11:13:11;100102.53;;;30.44
67599;BMP280;62026;39.230;9.122;2023-10-19T11:15:39;100094.09;;;30.53
67599;BMP280;62026;39.230;9.122;2023-10-19T11:18:48;100088.06;;;30.40
67599;BMP280;62026;39.230;9.122;2023-10-19T11:21:16;100077.50;;;30.12
67599;BMP280;62026;39.230;9.122;2023-10-19T11:23:48;100076.13;;;29.76
67599;BMP280;62026;39.230;9.122;2023-10-19T11:26:18;100076.53;;;30.01
67599;BMP280;62026;39.230;9.122;2023-10-19T11:28:44;100071.56;;;30.07
67599;BMP280;62026;39.230;9.122;2023-10-19T11:31:22;100073.28;;;29.92
67599;BMP280;62026;39.230;9.122;2023-10-19T11:33:49;100056.50;;;30.13
67599;BMP280;62026;39.230;9.122;2023-10-19T11:36:17;100055.72;;;29.90
67599;BMP280;62026;39.230;9.122;2023-10-19T11:38:47;100039.31;;;29.82
67599;BMP280;62026;39.230;9.122;2023-10-19T11:41:14;100046.53;;;29.75
67599;BMP280;62026;39.230;9.122;2023-10-19T11:43:43;100036.44;;;29.98
67599;BMP280;62026;39.230;9.122;2023-10-19T11:46:10;100038.53;;;30.08
67599;BMP280;62026;39.230;9.122;2023-10-19T11:48:41;100029.72;;;29.69
67599;BMP280;62026;39.230;9.122;2023-10-19T11:51:09;100024.41;;;29.76
67599;BMP280;62026;39.230;9.122;2023-10-19T11:53:38;100026.22;;;29.69
67599;BMP280;62026;39.230;9.122;2023-10-19T11:56:07;100020.75;;;29.46
67599;BMP280;62026;39.230;9.122;2023-10-19T11:58:34;100004.44;;;29.46
67599;BMP280;62026;39.230;9.122;2023-10-19T12:01:01;99995.06;;;29.66
67599;BMP280;62026;39.230;9.122;2023-10-19T12:03:43;99998.41;;;29.56
67599;BMP280;62026;39.230;9.122;2023-10-19T12:06:12;99991.69;;;29.50
67599;BMP280;62026;39.230;9.122;2023-10-19T12:08:45;99992.09;;;29.52
67599;BMP280;62026;39.230;9.122;2023-10-19T12:11:12;99986.41;;;29.61
67599;BMP280;62026;39.230;9.122;2023-10-19T12:13:44;99985.69;;;29.41
67599;BMP280;62026;39.230;9.122;2023-10-19T12:16:14;99992.16;;;29.56
67599;BMP280;62026;39.230;9.122;2023-10-19T12:18:44;99982.00;;;29.75
67599;BMP280;62026;39.230;9.122;2023-10-19T12:21:10;99986.81;;;29.59
67599;BMP280;62026;39.230;9.122;2023-10-19T12:23:44;99999.06;;;29.50
67599;BMP280;62026;39.230;9.122;2023-10-19T12:26:10;99988.75;;;29.39
67599;BMP280;62026;39.230;9.122;2023-10-19T12:28:40;99984.44;;;29.58
67599;BMP280;62026;39.230;9.122;2023-10-19T12:31:07;99987.31;;;29.46
67599;BMP280;62026;39.230;9.122;2023-10-19T12:33:39;99992.81;;;28.88
67599;BMP280;62026;39.230;9.122;2023-10-19T12:36:07;100006.06;;;28.70
67599;BMP280;62026;39.230;9.122;2023-10-19T12:38:52;99987.88;;;28.20
67599;BMP280;62026;39.230;9.122;2023-10-19T12:41:19;99996.47;;;28.41
67599;BMP280;62026;39.230;9.122;2023-10-19T12:43:45;99994.25;;;28.12
67599;BMP280;62026;39.230;9.122;2023-10-19T12:46:17;99976.84;;;28.48
67599;BMP280;62026;39.230;9.122;2023-10-19T12:48:45;99986.75;;;28.56
67599;BMP280;62026;39.230;9.122;2023-10-19T12:51:12;99971.75;;;28.62
67599;BMP280;62026;39.230;9.122;2023-10-19T12:53:39;99974.81;;;28.26
67599;BMP280;62026;39.230;9.122;2023-10-19T12:56:06;99965.50;;;28.27
67599;BMP280;62026;39.230;9.122;2023-10-19T12:58:33;99970.13;;;28.26
67599;BMP280;62026;39.230;9.122;2023-10-19T13:01:00;99970.06;;;28.58
67599;BMP280;62026;39.230;9.122;2023-10-19T13:03:26;99968.09;;;28.39
67599;BMP280;62026;39.230;9.122;2023-10-19T13:05:54;99955.22;;;28.01
67599;BMP280;62026;39.230;9.122;2023-10-19T13:08:20;99956.06;;;28.21
67599;BMP280;62026;39.230;9.122;2023-10-19T13:10:47;99950.41;;;28.45
67599;BMP280;62026;39.230;9.122;2023-10-19T13:13:15;99954.91;;;28.37
67599;BMP280;62026;39.230;9.122;2023-10-19T13:15:45;99951.97;;;28.46
67599;BMP280;62026;39.230;9.122;2023-10-19T13:18:12;99954.41;;;28.51
67599;BMP280;62026;39.230;9.122;2023-10-19T13:20:40;99957.09;;;28.32
67599;BMP280;62026;39.230;9.122;2023-10-19T13:23:10;99948.09;;;28.28
67599;BMP280;62026;39.230;9.122;2023-10-19T13:25:42;99940.13;;;28.54
67599;BMP280;62026;39.230;9.122;2023-10-19T13:28:34;99943.75;;;28.81
67599;BMP280;62026;39.230;9.122;2023-10-19T13:31:04;99941.97;;;28.88
67599;BMP280;62026;39.230;9.122;2023-10-19T13:33:30;99942.69;;;29.05
67599;BMP280;62026;39.230;9.122;2023-10-19T13:35:56;99942.88;;;28.96
67599;BMP280;62026;39.230;9.122;2023-10-19T13:38:22;99937.38;;;28.92
67599;BMP280;62026;39.230;9.122;2023-10-19T13:40:49;99932.66;;;29.09
67599;BMP280;62026;39.230;9.122;2023-10-19T13:43:17;99931.06;;;29.08
67599;BMP280;62026;39.230;9.122;2023-10-19T13:45:46;99934.41;;;28.98
67599;BMP280;62026;39.230;9.122;2023-10-19T13:48:14;99925.94;;;29.03
67599;BMP280;62026;39.230;9.122;2023-10-19T13:50:46;99928.88;;;28.94
67599;BMP280;62026;39.230;9.122;2023-10-19T13:53:15;99923.53;;;28.98
67599;BMP280;62026;39.230;9.122;2023-10-19T13:55:42;99919.47;;;29.11
67599;BMP280;62026;39.230;9.122;2023-10-19T13:58:09;99919.47;;;29.11
67599;BMP280;62026;39.230;9.122;2023-10-19T14:00:35;99927.25;;;28.89
67599;BMP280;62026;39.230;9.122;2023-10-19T14:03:02;99925.97;;;28.83
67599;BMP280;62026;39.230;9.122;2023-10-19T14:05:37;99919.16;;;28.93
67599;BMP280;62026;39.230;9.122;2023-10-19T14:08:06;99922.50;;;28.86
67599;BMP280;62026;39.230;9.122;2023-10-19T14:10:36;99917.22;;;28.93
67599;BMP280;62026;39.230;9.122;2023-10-19T14:13:02;99904.03;;;28.95
67599;BMP280;62026;39.230;9.122;2023-10-19T14:15:31;99914.00;;;28.88
67599;BMP280;62026;39.230;9.122;2023-10-19T14:18:00;99907.00;;;28.87
67599;BMP280;62026;39.230;9.122;2023-10-19T14:20:29;99902.34;;;28.87
67599;BMP280;62026;39.230;9.122;2023-10-19T14:22:56;99904.38;;;28.71
67599;BMP280;62026;39.230;9.122;2023-10-19T14:25:22;99910.44;;;28.84
67599;BMP280;62026;39.230;9.122;2023-10-19T14:27:51;99908.16;;;28.86
67599;BMP280;62026;39.230;9.122;2023-10-19T14:30:23;99907.16;;;28.75
67599;BMP280;62026;39.230;9.122;2023-10-19T14:32:50;99900.19;;;28.74